sensor_id;sensor_type;location;lat;lon;timestamp;temperature;humidity
24448;DHT22;13348;50.984;5.822;2023-07-09T00:02:18;21.90;99.90
24448;DHT22;13348;50.984;5.822;2023-07-09T00:04:45;21.90;99.90
24448;DHT22;13348;50.984;5.822;2023-07-09T00:07:14;21.70;99.90
24448;DHT22;13348;50.984;5.822;2023-07-09T00:09:42;21.60;99.90
24448;DHT22;13348;50.984;5.822;2023-07-09T00:12:10;21.40;99.90
24448;DHT22;13348;50.984;5.822;2023-07-09T00:14:39;21.50;99.90
24448;DHT22;13348;50.984;5.822;2023-07-09T00:17:07;21.70;99.90
24448;DHT22;13348;50.984;5.822;2023-07-09T00:19:36;21.70;99.90
24448;DHT22;13348;50.984;5.822;2023-07-09T00:22:04;21.60;99.90
24448;DHT22;13348;50.984;5.822;2023-07-09T00:24:36;21.50;99.90
24448;DHT22;13348;50.984;5.822;2023-07-09T00:27:04;21.30;99.90
24448;DHT22;13348;50.984;5.822;2023-07-09T00:29:34;21.20;99.90
24448;DHT22;13348;50.984;5.822;2023-07-09T00:32:01;21.20;99.90
24448;DHT22;13348;50.984;5.822;2023-07-09T00:34:28;21.00;99.90
24448;DHT22;13348;50.984;5.822;2023-07-09T00:36:56;21.00;99.90
24448;DHT22;13348;50.984;5.822;2023-07-09T00:39:25;21.00;99.90
24448;DHT22;13348;50.984;5.822;2023-07-09T00:41:52;21.00;99.90
24448;DHT22;13348;50.984;5.822;2023-07-09T00:44:24;21.00;99.90
24448;DHT22;13348;50.984;5.822;2023-07-09T00:47:14;21.00;99.90
24448;DHT22;13348;50.984;5.822;2023-07-09T00:49:43;21.00;99.90
24448;DHT22;13348;50.984;5.822;2023-07-09T00:52:17;21.20;99.90
24448;DHT22;13348;50.984;5.822;2023-07-09T00:54:47;21.30;99.90
24448;DHT22;13348;50.984;5.822;2023-07-09T00:57:17;21.30;99.90
24448;DHT22;13348;50.984;5.822;2023-07-09T00:59:44;21.40;99.90
24448;DHT22;13348;50.984;5.822;2023-07-09T01:02:12;21.50;99.90
24448;DHT22;13348;50.984;5.822;2023-07-09T01:04:39;21.60;99.90
24448;DHT22;13348;50.984;5.822;2023-07-09T01:07:07;21.70;99.90
24448;DHT22;13348;50.984;5.822;2023-07-09T01:09:36;21.80;99.90
24448;DHT22;13348;50.984;5.822;2023-07-09T01:12:07;21.80;99.90
24448;DHT22;13348;50.984;5.822;2023-07-09T01:14:34;21.90;99.90
24448;DHT22;13348;50.984;5.822;2023-07-09T01:17:03;21.90;99.90
24448;DHT22;13348;50.984;5.822;2023-07-09T01:19:36;21.90;99.90
24448;DHT22;13348;50.984;5.822;2023-07-09T01:22:10;21.80;99.90
24448;DHT22;13348;50.984;5.822;2023-07-09T01:24:48;21.90;99.90
24448;DHT22;13348;50.984;5.822;2023-07-09T01:27:16;21.90;99.90
24448;DHT22;13348;50.984;5.822;2023-07-09T01:29:43;22.00;99.90
24448;DHT22;13348;50.984;5.822;2023-07-09T01:32:15;22.10;99.90
24448;DHT22;13348;50.984;5.822;2023-07-09T01:34:44;22.20;99.90
24448;DHT22;13348;50.984;5.822;2023-07-09T01:37:15;22.30;99.90
24448;DHT22;13348;50.984;5.822;2023-07-09T01:39:42;22.40;99.90
24448;DHT22;13348;50.984;5.822;2023-07-09T01:42:09;22.70;99.90
24448;DHT22;13348;50.984;5.822;2023-07-09T01:44:36;22.70;99.90
24448;DHT22;13348;50.984;5.822;2023-07-09T01:47:04;22.80;99.90
24448;DHT22;13348;50.984;5.822;2023-07-09T01:49:31;22.90;99.90
24448;DHT22;13348;50.984;5.822;2023-07-09T01:51:59;22.90;99.90
24448;DHT22;13348;50.984;5.822;2023-07-09T01:54:29;22.80;99.90
24448;DHT22;13348;50.984;5.822;2023-07-09T01:59:40;22.60;99.90
24448;DHT22;13348;50.984;5.822;2023-07-09T02:02:07;22.60;99.90
24448;DHT22;13348;50.984;5.822;2023-07-09T02:04:34;22.60;99.90
24448;DHT22;13348;50.984;5.822;2023-07-09T02:07:01;22.60;99.90
24448;DHT22;13348;50.984;5.822;2023-07-09T02:09:29;22.50;99.90
24448;DHT22;13348;50.984;5.822;2023-07-09T02:11:56;22.30;99.90
24448;DHT22;13348;50.984;5.822;2023-07-09T02:14:23;22.10;99.90
24448;DHT22;13348;50.984;5.822;2023-07-09T02:16:50;21.90;99.90
24448;DHT22;13348;50.984;5.822;2023-07-09T02:19:17;21.70;99.90
24448;DHT22;13348;50.984;5.822;2023-07-09T02:21:44;21.50;99.90
24448;DHT22;13348;50.984;5.822;2023-07-09T02:24:12;21.40;99.90
24448;DHT22;13348;50.984;5.822;2023-07-09T02:26:40;21.30;99.90
24448;DHT22;13348;50.984;5.822;2023-07-09T02:29:07;21.10;99.90
24448;DHT22;13348;50.984;5.822;2023-07-09T02:31:34;21.00;99.90
24448;DHT22;13348;50.984;5.822;2023-07-09T02:34:01;20.90;99.90
24448;DHT22;13348;50.984;5.822;2023-07-09T02:36:28;21.00;99.90
24448;DHT22;13348;50.984;5.822;2023-07-09T02:38:55;21.00;99.90
24448;DHT22;13348;50.984;5.822;2023-07-09T02:41:22;21.20;99.90
24448;DHT22;13348;50.984;5.822;2023-07-09T02:43:51;21.10;99.90
24448;DHT22;13348;50.984;5.822;2023-07-09T02:46:18;21.00;99.90
24448;DHT22;13348;50.984;5.822;2023-07-09T02:48:45;20.90;99.90
24448;DHT22;13348;50.984;5.822;2023-07-09T02:51:12;20.90;99.90
24448;DHT22;13348;50.984;5.822;2023-07-09T02:53:39;20.70;99.90
24448;DHT22;13348;50.984;5.822;2023-07-09T02:56:05;20.60;99.90
24448;DHT22;13348;50.984;5.822;2023-07-09T02:58:32;20.50;99.90
24448;DHT22;13348;50.984;5.822;2023-07-09T03:01:01;20.60;99.90
24448;DHT22;13348;50.984;5.822;2023-07-09T03:03:29;20.70;99.90
24448;DHT22;13348;50.984;5.822;2023-07-09T03:05:56;20.80;99.90
24448;DHT22;13348;50.984;5.822;2023-07-09T03:08:23;20.80;99.90
24448;DHT22;13348;50.984;5.822;2023-07-09T03:10:50;20.80;99.90
24448;DHT22;13348;50.984;5.822;2023-07-09T03:13:17;20.90;99.90
24448;DHT22;13348;50.984;5.822;2023-07-09T03:15:44;21.00;99.90
24448;DHT22;13348;50.984;5.822;2023-07-09T03:18:21;21.00;99.90
24448;DHT22;13348;50.984;5.822;2023-07-09T03:20:48;21.00;99.90
24448;DHT22;13348;50.984;5.822;2023-07-09T03:23:15;21.10;99.90
24448;DHT22;13348;50.984;5.822;2023-07-09T03:25:42;21.10;99.90
24448;DHT22;13348;50.984;5.822;2023-07-09T03:28:09;21.20;99.90
24448;DHT22;13348;50.984;5.822;2023-07-09T03:30:39;21.20;99.90
24448;DHT22;13348;50.984;5.822;2023-07-09T03:33:06;21.20;99.90
24448;DHT22;13348;50.984;5.822;2023-07-09T03:35:34;21.00;99.90
24448;DHT22;13348;50.984;5.822;2023-07-09T03:38:02;21.10;99.90
24448;DHT22;13348;50.984;5.822;2023-07-09T03:40:29;21.20;99.90
24448;DHT22;13348;50.984;5.822;2023-07-09T03:42:55;21.30;99.90
24448;DHT22;13348;50.984;5.822;2023-07-09T03:45:23;21.30;99.90
24448;DHT22;13348;50.984;5.822;2023-07-09T03:47:50;21.30;99.90
24448;DHT22;13348;50.984;5.822;2023-07-09T03:50:17;21.40;99.90
24448;DHT22;13348;50.984;5.822;2023-07-09T03:52:45;21.40;99.90
24448;DHT22;13348;50.984;5.822;2023-07-09T03:55:12;21.40;99.90
24448;DHT22;13348;50.984;5.822;2023-07-09T03:57:39;21.40;99.90
24448;DHT22;13348;50.984;5.822;2023-07-09T04:00:07;21.40;99.90
24448;DHT22;13348;50.984;5.822;2023-07-09T04:02:36;21.40;99.90
24448;DHT22;13348;50.984;5.822;2023-07-09T04:05:03;21.40;99.90
24448;DHT22;13348;50.984;5.822;2023-07-09T04:07:30;21.40;99.90
24448;DHT22;13348;50.984;5.822;2023-07-09T04:09:59;21.40;99.90
24448;DHT22;13348;50.984;5.822;2023-07-09T04:12:26;21.30;99.90
24448;DHT22;13348;50.984;5.822;2023-07-09T04:14:53;21.10;99.90
24448;DHT22;13348;50.984;5.822;2023-07-09T04:17:20;21.10;99.90
24448;DHT22;13348;50.984;5.822;2023-07-09T04:19:48;21.30;99.90
24448;DHT22;13348;50.984;5.822;2023-07-09T04:22:15;21.40;99.90
24448;DHT22;13348;50.984;5.822;2023-07-09T04:24:42;21.50;99.90
24448;DHT22;13348;50.984;5.822;2023-07-09T04:27:11;21.40;99.90
24448;DHT22;13348;50.984;5.822;2023-07-09T04:29:39;21.40;99.90
24448;DHT22;13348;50.984;5.822;2023-07-09T04:32:06;21.40;99.90
24448;DHT22;13348;50.984;5.822;2023-07-09T04:34:33;21.40;99.90
24448;DHT22;13348;50.984;5.822;2023-07-09T04:37:00;21.50;99.90
24448;DHT22;13348;50.984;5.822;2023-07-09T04:39:27;21.60;99.90
24448;DHT22;13348;50.984;5.822;2023-07-09T04:41:54;21.60;99.90
24448;DHT22;13348;50.984;5.822;2023-07-09T04:44:23;21.70;99.90
24448;DHT22;13348;50.984;5.822;2023-07-09T04:46:50;21.80;99.90
24448;DHT22;13348;50.984;5.822;2023-07-09T04:49:17;21.90;99.90
24448;DHT22;13348;50.984;5.822;2023-07-09T04:51:44;22.00;99.90
24448;DHT22;13348;50.984;5.822;2023-07-09T04:54:11;22.10;99.90
24448;DHT22;13348;50.984;5.822;2023-07-09T04:56:40;22.20;99.90
24448;DHT22;13348;50.984;5.822;2023-07-09T04:59:09;22.20;99.90
24448;DHT22;13348;50.984;5.822;2023-07-09T05:01:38;22.30;99.90
24448;DHT22;13348;50.984;5.822;2023-07-09T05:04:05;22.40;99.90
24448;DHT22;13348;50.984;5.822;2023-07-09T05:06:33;22.60;99.90
24448;DHT22;13348;50.984;5.822;2023-07-09T05:09:00;22.70;99.90
24448;DHT22;13348;50.984;5.822;2023-07-09T05:11:27;22.90;99.90
24448;DHT22;13348;50.984;5.822;2023-07-09T05:13:54;23.10;99.90
24448;DHT22;13348;50.984;5.822;2023-07-09T05:16:21;23.30;99.90
24448;DHT22;13348;50.984;5.822;2023-07-09T05:18:49;23.60;99.90
24448;DHT22;13348;50.984;5.822;2023-07-09T05:21:16;23.90;99.90
24448;DHT22;13348;50.984;5.822;2023-07-09T05:23:43;24.20;99.90
24448;DHT22;13348;50.984;5.822;2023-07-09T05:26:10;24.30;99.90
24448;DHT22;13348;50.984;5.822;2023-07-09T05:28:37;24.60;99.90
24448;DHT22;13348;50.984;5.822;2023-07-09T05:31:04;24.90;99.90
24448;DHT22;13348;50.984;5.822;2023-07-09T05:33:32;25.10;99.90
24448;DHT22;13348;50.984;5.822;2023-07-09T05:36:00;25.30;99.90
24448;DHT22;13348;50.984;5.822;2023-07-09T05:38:28;25.30;99.90
24448;DHT22;13348;50.984;5.822;2023-07-09T05:40:59;25.50;99.90
24448;DHT22;13348;50.984;5.822;2023-07-09T05:43:26;25.70;99.90
24448;DHT22;13348;50.984;5.822;2023-07-09T05:45:53;25.80;99.90
24448;DHT22;13348;50.984;5.822;2023-07-09T05:48:20;25.90;99.90
24448;DHT22;13348;50.984;5.822;2023-07-09T05:50:47;26.00;99.90
24448;DHT22;13348;50.984;5.822;2023-07-09T05:53:16;26.20;99.90
24448;DHT22;13348;50.984;5.822;2023-07-09T05:55:43;26.40;99.90
24448;DHT22;13348;50.984;5.822;2023-07-09T05:58:10;26.70;99.90
24448;DHT22;13348;50.984;5.822;2023-07-09T06:00:37;26.90;99.90
24448;DHT22;13348;50.984;5.822;2023-07-09T06:03:06;27.00;99.90
24448;DHT22;13348;50.984;5.822;2023-07-09T06:05:34;27.10;99.90
24448;DHT22;13348;50.984;5.822;2023-07-09T06:08:03;27.20;99.90
24448;DHT22;13348;50.984;5.822;2023-07-09T06:10:31;27.40;99.90
24448;DHT22;13348;50.984;5.822;2023-07-09T06:12:58;27.80;99.90
24448;DHT22;13348;50.984;5.822;2023-07-09T06:15:25;28.00;99.90
24448;DHT22;13348;50.984;5.822;2023-07-09T06:17:52;28.30;99.90
24448;DHT22;13348;50.984;5.822;2023-07-09T06:20:19;28.40;99.90
24448;DHT22;13348;50.984;5.822;2023-07-09T06:22:46;28.50;99.90
24448;DHT22;13348;50.984;5.822;2023-07-09T06:25:13;28.50;99.90
24448;DHT22;13348;50.984;5.822;2023-07-09T06:27:42;28.50;99.90
24448;DHT22;13348;50.984;5.822;2023-07-09T06:30:09;28.80;99.90
24448;DHT22;13348;50.984;5.822;2023-07-09T06:32:36;28.70;99.90
24448;DHT22;13348;50.984;5.822;2023-07-09T06:35:03;28.80;99.90
24448;DHT22;13348;50.984;5.822;2023-07-09T06:37:30;29.30;99.90
24448;DHT22;13348;50.984;5.822;2023-07-09T06:39:57;29.50;99.90
24448;DHT22;13348;50.984;5.822;2023-07-09T06:42:25;29.60;99.90
24448;DHT22;13348;50.984;5.822;2023-07-09T06:44:53;29.60;99.90
24448;DHT22;13348;50.984;5.822;2023-07-09T06:47:20;29.40;99.90
24448;DHT22;13348;50.984;5.822;2023-07-09T06:49:47;29.40;99.90
24448;DHT22;13348;50.984;5.822;2023-07-09T06:52:14;29.50;99.90
24448;DHT22;13348;50.984;5.822;2023-07-09T06:54:41;29.50;99.90
24448;DHT22;13348;50.984;5.822;2023-07-09T06:57:08;29.50;99.90
24448;DHT22;13348;50.984;5.822;2023-07-09T06:59:35;29.60;99.90
24448;DHT22;13348;50.984;5.822;2023-07-09T07:02:05;29.70;99.90
24448;DHT22;13348;50.984;5.822;2023-07-09T07:04:32;29.70;99.90
24448;DHT22;13348;50.984;5.822;2023-07-09T07:06:59;29.70;99.90
24448;DHT22;13348;50.984;5.822;2023-07-09T07:09:26;29.90;99.90
24448;DHT22;13348;50.984;5.822;2023-07-09T07:11:53;30.10;99.90
24448;DHT22;13348;50.984;5.822;2023-07-09T07:14:20;30.10;99.90
24448;DHT22;13348;50.984;5.822;2023-07-09T07:16:47;30.30;99.90
24448;DHT22;13348;50.984;5.822;2023-07-09T07:19:15;30.30;99.90
24448;DHT22;13348;50.984;5.822;2023-07-09T07:21:42;30.30;99.90
24448;DHT22;13348;50.984;5.822;2023-07-09T07:24:09;30.30;99.90
24448;DHT22;13348;50.984;5.822;2023-07-09T07:26:36;30.50;99.90
24448;DHT22;13348;50.984;5.822;2023-07-09T07:29:03;30.80;99.90
24448;DHT22;13348;50.984;5.822;2023-07-09T07:31:30;31.20;99.90
24448;DHT22;13348;50.984;5.822;2023-07-09T07:33:57;31.10;99.90
24448;DHT22;13348;50.984;5.822;2023-07-09T07:36:26;30.90;99.90
24448;DHT22;13348;50.984;5.822;2023-07-09T07:38:52;31.10;99.90
24448;DHT22;13348;50.984;5.822;2023-07-09T07:41:19;31.20;99.90
24448;DHT22;13348;50.984;5.822;2023-07-09T07:43:46;31.40;99.90
24448;DHT22;13348;50.984;5.822;2023-07-09T07:46:13;31.30;99.90
24448;DHT22;13348;50.984;5.822;2023-07-09T07:48:40;31.40;99.90
24448;DHT22;13348;50.984;5.822;2023-07-09T07:51:07;31.60;99.90
24448;DHT22;13348;50.984;5.822;2023-07-09T07:53:36;32.00;99.90
24448;DHT22;13348;50.984;5.822;2023-07-09T07:56:03;32.20;99.90
24448;DHT22;13348;50.984;5.822;2023-07-09T07:58:30;32.00;99.90
24448;DHT22;13348;50.984;5.822;2023-07-09T08:00:57;32.20;99.90
24448;DHT22;13348;50.984;5.822;2023-07-09T08:03:24;32.00;99.90
24448;DHT22;13348;50.984;5.822;2023-07-09T08:05:51;32.00;99.90
24448;DHT22;13348;50.984;5.822;2023-07-09T08:08:18;32.20;99.90
24448;DHT22;13348;50.984;5.822;2023-07-09T08:10:48;32.30;99.90
24448;DHT22;13348;50.984;5.822;2023-07-09T08:13:15;32.50;99.90
24448;DHT22;13348;50.984;5.822;2023-07-09T08:15:42;32.50;99.90
24448;DHT22;13348;50.984;5.822;2023-07-09T08:18:11;32.50;99.90
24448;DHT22;13348;50.984;5.822;2023-07-09T08:20:42;32.80;99.90
24448;DHT22;13348;50.984;5.822;2023-07-09T08:23:09;32.90;99.90
24448;DHT22;13348;50.984;5.822;2023-07-09T08:25:36;32.50;99.90
24448;DHT22;13348;50.984;5.822;2023-07-09T08:28:04;32.30;99.90
24448;DHT22;13348;50.984;5.822;2023-07-09T08:30:31;32.20;99.90
24448;DHT22;13348;50.984;5.822;2023-07-09T08:32:58;32.30;99.90
24448;DHT22;13348;50.984;5.822;2023-07-09T08:35:26;32.40;99.90
24448;DHT22;13348;50.984;5.822;2023-07-09T08:37:53;32.20;99.90
24448;DHT22;13348;50.984;5.822;2023-07-09T08:40:20;31.80;99.90
24448;DHT22;13348;50.984;5.822;2023-07-09T08:42:49;31.90;99.90
24448;DHT22;13348;50.984;5.822;2023-07-09T08:45:24;31.80;99.90
24448;DHT22;13348;50.984;5.822;2023-07-09T08:47:52;31.70;99.90
24448;DHT22;13348;50.984;5.822;2023-07-09T08:50:22;31.80;99.90
24448;DHT22;13348;50.984;5.822;2023-07-09T08:52:51;32.00;99.90
24448;DHT22;13348;50.984;5.822;2023-07-09T08:55:19;32.00;99.90
24448;DHT22;13348;50.984;5.822;2023-07-09T08:57:47;32.10;99.90
24448;DHT22;13348;50.984;5.822;2023-07-09T09:00:17;32.00;99.90
24448;DHT22;13348;50.984;5.822;2023-07-09T09:02:46;31.80;99.90
24448;DHT22;13348;50.984;5.822;2023-07-09T09:05:17;31.80;99.90
24448;DHT22;13348;50.984;5.822;2023-07-09T09:07:44;32.00;99.90
24448;DHT22;13348;50.984;5.822;2023-07-09T09:10:13;31.90;99.90
24448;DHT22;13348;50.984;5.822;2023-07-09T09:12:43;31.90;99.90
24448;DHT22;13348;50.984;5.822;2023-07-09T09:15:17;32.00;99.90
24448;DHT22;13348;50.984;5.822;2023-07-09T09:17:45;32.20;99.90
24448;DHT22;13348;50.984;5.822;2023-07-09T09:20:17;32.20;99.90
24448;DHT22;13348;50.984;5.822;2023-07-09T09:22:48;32.20;99.90
24448;DHT22;13348;50.984;5.822;2023-07-09T09:25:18;32.00;99.90
24448;DHT22;13348;50.984;5.822;2023-07-09T09:27:46;32.10;99.90
24448;DHT22;13348;50.984;5.822;2023-07-09T09:30:14;32.30;99.90
24448;DHT22;13348;50.984;5.822;2023-07-09T09:32:43;32.40;99.90
24448;DHT22;13348;50.984;5.822;2023-07-09T09:35:13;32.60;99.90
24448;DHT22;13348;50.984;5.822;2023-07-09T09:37:40;32.70;99.90
24448;DHT22;13348;50.984;5.822;2023-07-09T09:40:08;33.30;99.90
24448;DHT22;13348;50.984;5.822;2023-07-09T09:42:35;33.70;99.90
24448;DHT22;13348;50.984;5.822;2023-07-09T09:45:02;33.80;99.90
24448;DHT22;13348;50.984;5.822;2023-07-09T09:47:29;34.30;99.90
24448;DHT22;13348;50.984;5.822;2023-07-09T09:49:56;35.00;99.90
24448;DHT22;13348;50.984;5.822;2023-07-09T09:52:26;35.50;99.90
24448;DHT22;13348;50.984;5.822;2023-07-09T09:54:56;35.80;99.90
24448;DHT22;13348;50.984;5.822;2023-07-09T09:57:28;36.30;99.90
24448;DHT22;13348;50.984;5.822;2023-07-09T09:59:55;36.80;99.90
24448;DHT22;13348;50.984;5.822;2023-07-09T10:02:22;37.10;99.90
24448;DHT22;13348;50.984;5.822;2023-07-09T10:04:50;37.00;99.90
24448;DHT22;13348;50.984;5.822;2023-07-09T10:07:19;37.20;99.90
24448;DHT22;13348;50.984;5.822;2023-07-09T10:09:50;38.00;99.90
24448;DHT22;13348;50.984;5.822;2023-07-09T10:12:18;38.60;99.90
24448;DHT22;13348;50.984;5.822;2023-07-09T10:14:49;37.50;99.90
24448;DHT22;13348;50.984;5.822;2023-07-09T10:17:19;37.10;99.90
24448;DHT22;13348;50.984;5.822;2023-07-09T10:19:48;36.90;99.90
24448;DHT22;13348;50.984;5.822;2023-07-09T10:22:28;37.60;99.90
24448;DHT22;13348;50.984;5.822;2023-07-09T10:25:02;38.20;99.90
24448;DHT22;13348;50.984;5.822;2023-07-09T10:27:35;38.90;99.90
24448;DHT22;13348;50.984;5.822;2023-07-09T10:30:16;38.90;98.90
24448;DHT22;13348;50.984;5.822;2023-07-09T10:32:47;38.60;98.80
24448;DHT22;13348;50.984;5.822;2023-07-09T10:35:18;38.90;98.00
24448;DHT22;13348;50.984;5.822;2023-07-09T10:37:55;38.30;98.20
24448;DHT22;13348;50.984;5.822;2023-07-09T10:40:31;38.20;98.10
24448;DHT22;13348;50.984;5.822;2023-07-09T10:42:58;38.30;99.00
24448;DHT22;13348;50.984;5.822;2023-07-09T10:45:28;39.00;99.40
24448;DHT22;13348;50.984;5.822;2023-07-09T10:47:57;38.20;99.30
24448;DHT22;13348;50.984;5.822;2023-07-09T10:50:27;38.60;96.80
24448;DHT22;13348;50.984;5.822;2023-07-09T10:52:54;38.50;98.80
24448;DHT22;13348;50.984;5.822;2023-07-09T10:55:25;39.20;96.80
24448;DHT22;13348;50.984;5.822;2023-07-09T10:57:57;38.70;98.00
24448;DHT22;13348;50.984;5.822;2023-07-09T11:00:30;38.90;96.10
24448;DHT22;13348;50.984;5.822;2023-07-09T11:03:00;37.90;94.90
24448;DHT22;13348;50.984;5.822;2023-07-09T11:05:27;37.50;96.00
24448;DHT22;13348;50.984;5.822;2023-07-09T11:07:55;37.40;96.30
24448;DHT22;13348;50.984;5.822;2023-07-09T11:10:25;37.90;95.50
24448;DHT22;13348;50.984;5.822;2023-07-09T11:12:55;38.10;94.80
24448;DHT22;13348;50.984;5.822;2023-07-09T11:15:26;38.50;95.60
24448;DHT22;13348;50.984;5.822;2023-07-09T11:17:56;37.70;95.30
24448;DHT22;13348;50.984;5.822;2023-07-09T11:20:24;37.20;95.90
24448;DHT22;13348;50.984;5.822;2023-07-09T11:22:52;37.40;96.90
24448;DHT22;13348;50.984;5.822;2023-07-09T11:25:27;37.40;97.30
24448;DHT22;13348;50.984;5.822;2023-07-09T11:28:01;36.80;96.50
24448;DHT22;13348;50.984;5.822;2023-07-09T11:30:30;37.40;95.60
24448;DHT22;13348;50.984;5.822;2023-07-09T11:32:58;37.00;95.20
24448;DHT22;13348;50.984;5.822;2023-07-09T11:35:28;37.00;96.40
24448;DHT22;13348;50.984;5.822;2023-07-09T11:37:55;37.50;95.80
24448;DHT22;13348;50.984;5.822;2023-07-09T11:40:24;37.70;95.30
24448;DHT22;13348;50.984;5.822;2023-07-09T11:42:52;38.00;94.90
24448;DHT22;13348;50.984;5.822;2023-07-09T11:45:20;37.80;94.30
24448;DHT22;13348;50.984;5.822;2023-07-09T11:47:50;37.80;95.00
24448;DHT22;13348;50.984;5.822;2023-07-09T11:50:22;38.30;94.70
24448;DHT22;13348;50.984;5.822;2023-07-09T11:52:51;37.40;93.70
24448;DHT22;13348;50.984;5.822;2023-07-09T11:55:24;37.50;94.90
24448;DHT22;13348;50.984;5.822;2023-07-09T11:57:52;37.80;93.80
24448;DHT22;13348;50.984;5.822;2023-07-09T12:00:19;37.40;94.80
24448;DHT22;13348;50.984;5.822;2023-07-09T12:02:46;37.70;94.80
24448;DHT22;13348;50.984;5.822;2023-07-09T12:05:15;37.80;94.60
24448;DHT22;13348;50.984;5.822;2023-07-09T12:07:45;37.60;95.10
24448;DHT22;13348;50.984;5.822;2023-07-09T12:10:15;37.20;93.90
24448;DHT22;13348;50.984;5.822;2023-07-09T12:12:44;36.80;95.90
24448;DHT22;13348;50.984;5.822;2023-07-09T12:15:13;37.20;94.70
24448;DHT22;13348;50.984;5.822;2023-07-09T12:17:42;36.60;95.90
24448;DHT22;13348;50.984;5.822;2023-07-09T12:20:10;36.30;96.10
24448;DHT22;13348;50.984;5.822;2023-07-09T12:22:39;36.70;95.80
24448;DHT22;13348;50.984;5.822;2023-07-09T12:25:07;36.20;96.70
24448;DHT22;13348;50.984;5.822;2023-07-09T12:27:45;35.80;99.00
24448;DHT22;13348;50.984;5.822;2023-07-09T12:30:12;34.90;99.00
24448;DHT22;13348;50.984;5.822;2023-07-09T12:32:43;34.90;98.90
24448;DHT22;13348;50.984;5.822;2023-07-09T12:35:11;34.60;99.90
24448;DHT22;13348;50.984;5.822;2023-07-09T12:37:40;34.00;99.90
24448;DHT22;13348;50.984;5.822;2023-07-09T12:40:11;33.10;99.90
24448;DHT22;13348;50.984;5.822;2023-07-09T12:42:39;33.10;99.90
24448;DHT22;13348;50.984;5.822;2023-07-09T12:45:08;32.80;99.90
24448;DHT22;13348;50.984;5.822;2023-07-09T12:47:40;32.70;99.90
24448;DHT22;13348;50.984;5.822;2023-07-09T12:50:16;32.40;99.90
24448;DHT22;13348;50.984;5.822;2023-07-09T12:52:48;31.80;99.90
24448;DHT22;13348;50.984;5.822;2023-07-09T12:55:19;31.20;99.90
24448;DHT22;13348;50.984;5.822;2023-07-09T12:57:46;30.90;99.90
24448;DHT22;13348;50.984;5.822;2023-07-09T13:00:14;30.50;99.90
24448;DHT22;13348;50.984;5.822;2023-07-09T13:02:41;29.70;99.90
24448;DHT22;13348;50.984;5.822;2023-07-09T13:05:17;28.80;99.90
24448;DHT22;13348;50.984;5.822;2023-07-09T13:07:46;28.10;99.90
24448;DHT22;13348;50.984;5.822;2023-07-09T13:10:16;27.00;99.90
24448;DHT22;13348;50.984;5.822;2023-07-09T13:12:45;25.80;99.90
24448;DHT22;13348;50.984;5.822;2023-07-09T13:15:20;24.80;99.90
24448;DHT22;13348;50.984;5.822;2023-07-09T13:17:48;24.20;99.90
24448;DHT22;13348;50.984;5.822;2023-07-09T13:20:15;24.00;99.90
24448;DHT22;13348;50.984;5.822;2023-07-09T13:22:42;24.10;99.90
24448;DHT22;13348;50.984;5.822;2023-07-09T13:25:10;24.10;99.90
24448;DHT22;13348;50.984;5.822;2023-07-09T13:27:38;23.90;99.90
24448;DHT22;13348;50.984;5.822;2023-07-09T13:30:07;23.90;99.90
24448;DHT22;13348;50.984;5.822;2023-07-09T13:32:34;23.50;99.90
24448;DHT22;13348;50.984;5.822;2023-07-09T13:35:01;23.20;99.90
24448;DHT22;13348;50.984;5.822;2023-07-09T13:37:29;22.90;99.90
24448;DHT22;13348;50.984;5.822;2023-07-09T13:39:56;22.50;99.90
24448;DHT22;13348;50.984;5.822;2023-07-09T13:42:25;21.40;99.90
24448;DHT22;13348;50.984;5.822;2023-07-09T13:44:54;21.40;99.90
24448;DHT22;13348;50.984;5.822;2023-07-09T13:47:21;21.70;99.90
24448;DHT22;13348;50.984;5.822;2023-07-09T13:49:48;21.90;99.90
24448;DHT22;13348;50.984;5.822;2023-07-09T13:52:16;22.20;99.90
24448;DHT22;13348;50.984;5.822;2023-07-09T13:54:44;22.50;99.90
24448;DHT22;13348;50.984;5.822;2023-07-09T13:57:14;23.10;99.90
24448;DHT22;13348;50.984;5.822;2023-07-09T13:59:41;23.50;99.90
24448;DHT22;13348;50.984;5.822;2023-07-09T14:02:16;23.60;99.90
24448;DHT22;13348;50.984;5.822;2023-07-09T14:04:44;23.70;99.90
24448;DHT22;13348;50.984;5.822;2023-07-09T14:07:12;23.80;99.90
24448;DHT22;13348;50.984;5.822;2023-07-09T14:09:46;24.00;99.90
24448;DHT22;13348;50.984;5.822;2023-07-09T14:12:13;24.20;99.90
24448;DHT22;13348;50.984;5.822;2023-07-09T14:14:40;24.30;99.90
24448;DHT22;13348;50.984;5.822;2023-07-09T14:17:11;24.30;99.90
24448;DHT22;13348;50.984;5.822;2023-07-09T14:19:40;24.20;99.90
24448;DHT22;13348;50.984;5.822;2023-07-09T14:22:15;24.00;99.90
24448;DHT22;13348;50.984;5.822;2023-07-09T14:24:45;23.90;99.90
24448;DHT22;13348;50.984;5.822;2023-07-09T14:27:12;23.70;99.90
24448;DHT22;13348;50.984;5.822;2023-07-09T14:29:39;23.70;99.90
24448;DHT22;13348;50.984;5.822;2023-07-09T14:32:08;23.80;99.90
24448;DHT22;13348;50.984;5.822;2023-07-09T14:34:50;24.10;99.90
24448;DHT22;13348;50.984;5.822;2023-07-09T14:37:17;24.30;99.90
24448;DHT22;13348;50.984;5.822;2023-07-09T14:39:44;24.30;99.90
24448;DHT22;13348;50.984;5.822;2023-07-09T14:42:12;24.30;99.90
24448;DHT22;13348;50.984;5.822;2023-07-09T14:44:40;24.30;99.90
24448;DHT22;13348;50.984;5.822;2023-07-09T14:47:10;24.20;99.90
24448;DHT22;13348;50.984;5.822;2023-07-09T14:49:38;24.20;99.90
24448;DHT22;13348;50.984;5.822;2023-07-09T14:52:09;24.30;99.90
24448;DHT22;13348;50.984;5.822;2023-07-09T14:54:38;24.40;99.90
24448;DHT22;13348;50.984;5.822;2023-07-09T14:57:07;24.40;99.90
24448;DHT22;13348;50.984;5.822;2023-07-09T14:59:35;24.40;99.90
24448;DHT22;13348;50.984;5.822;2023-07-09T15:02:08;24.60;99.90
24448;DHT22;13348;50.984;5.822;2023-07-09T15:04:39;24.90;99.90
24448;DHT22;13348;50.984;5.822;2023-07-09T15:07:08;24.90;99.90
24448;DHT22;13348;50.984;5.822;2023-07-09T15:09:36;24.80;99.90
24448;DHT22;13348;50.984;5.822;2023-07-09T15:12:03;24.80;99.90
24448;DHT22;13348;50.984;5.822;2023-07-09T15:14:30;24.90;99.90
24448;DHT22;13348;50.984;5.822;2023-07-09T15:16:57;25.20;99.90
24448;DHT22;13348;50.984;5.822;2023-07-09T15:19:24;25.40;99.90
24448;DHT22;13348;50.984;5.822;2023-07-09T15:21:51;25.70;99.90
24448;DHT22;13348;50.984;5.822;2023-07-09T15:24:21;25.90;99.90
24448;DHT22;13348;50.984;5.822;2023-07-09T15:26:51;25.90;99.90
24448;DHT22;13348;50.984;5.822;2023-07-09T15:29:18;25.90;99.90
24448;DHT22;13348;50.984;5.822;2023-07-09T15:31:45;26.60;99.90
24448;DHT22;13348;50.984;5.822;2023-07-09T15:34:12;26.40;99.90
24448;DHT22;13348;50.984;5.822;2023-07-09T15:36:40;26.90;99.90
24448;DHT22;13348;50.984;5.822;2023-07-09T15:39:09;27.10;99.90
24448;DHT22;13348;50.984;5.822;2023-07-09T15:41:38;27.40;99.90